Time;durP1;ratioP1;P1;durP2;ratioP2;P2;SDS_P1;SDS_P2;PMS_P1;PMS_P2;Temp;Humidity;BMP_temperature;BMP_pressure;BME280_temperature;BME280_humidity;BME280_pressure;Samples;Min_cycle;Max_cycle;Signal;HPM_P1;HPM_P2
2019/08/23 00:00:11;;;;;;;16.2;14.7;;;;;;;11.11;100;96135.64;;;;
2019/08/23 00:01:16;;;;;;;16.2;14.7;;;;;;;11.11;100;96135.64;;;;
2019/08/23 00:02:21;;;;;;;16.2;14.7;;;;;;;11.11;100;96135.64;;;;
2019/08/23 00:03:27;;;;;;;16.2;14.7;;;;;;;11.11;100;96135.64;;;;
2019/08/23 00:04:31;;;;;;;16.2;14.7;;;;;;;11.11;100;96135.64;;;;
2019/08/23 00:05:35;;;;;;;16.2;14.7;;;;;;;11.11;100;96135.64;;;;
2019/08/23 00:06:38;;;;;;;14.95;13.55;;;;;;;10.99;100;96139.58;;;;
2019/08/23 00:07:41;;;;;;;14.95;13.55;;;;;;;10.99;100;96139.58;;;;
2019/08/23 00:08:43;;;;;;;14.95;13.55;;;;;;;10.99;100;96139.58;;;;
2019/08/23 00:09:47;;;;;;;14.95;13.55;;;;;;;10.99;100;96139.58;;;;
2019/08/23 00:10:51;;;;;;;14.95;13.55;;;;;;;10.99;100;96139.58;;;;
2019/08/23 00:11:55;;;;;;;14.95;13.55;;;;;;;10.99;100;96139.58;;;;
2019/08/23 00:12:57;;;;;;;14.95;13.55;;;;;;;10.99;100;96139.58;;;;
2019/08/23 00:14:00;;;;;;;14.95;13.55;;;;;;;10.99;100;96139.58;;;;
2019/08/23 00:15:04;;;;;;;14.95;13.55;;;;;;;10.99;100;96139.58;;;;
2019/08/23 00:16:07;;;;;;;14.95;13.55;;;;;;;10.99;100;96139.58;;;;
2019/08/23 00:17:10;;;;;;;15.85;14.45;;;;;;;10.94;100;96142.49;;;;
2019/08/23 00:18:12;;;;;;;15.85;14.45;;;;;;;10.94;100;96142.49;;;;
2019/08/23 00:19:13;;;;;;;15.85;14.45;;;;;;;10.94;100;96142.49;;;;
2019/08/23 00:20:18;;;;;;;15.85;14.45;;;;;;;10.94;100;96142.49;;;;
2019/08/23 00:21:21;;;;;;;15.85;14.45;;;;;;;10.94;100;96142.49;;;;
2019/08/23 00:22:24;;;;;;;15.85;14.45;;;;;;;10.94;100;96142.49;;;;
2019/08/23 00:23:26;;;;;;;15.85;14.45;;;;;;;10.94;100;96142.49;;;;
2019/08/23 00:24:29;;;;;;;15.85;14.45;;;;;;;10.94;100;96142.49;;;;
2019/08/23 00:25:32;;;;;;;15.85;14.45;;;;;;;10.94;100;96142.49;;;;
2019/08/23 00:26:34;;;;;;;15.85;14.45;;;;;;;10.94;100;96142.49;;;;
2019/08/23 00:27:37;;;;;;;14.45;13.15;;;;;;;10.82;100;96133.95;;;;
2019/08/23 00:28:39;;;;;;;14.45;13.15;;;;;;;10.82;100;96133.95;;;;
2019/08/23 00:29:41;;;;;;;14.45;13.15;;;;;;;10.82;100;96133.95;;;;
2019/08/23 00:30:43;;;;;;;14.45;13.15;;;;;;;10.82;100;96133.95;;;;
2019/08/23 00:31:52;;;;;;;14.45;13.15;;;;;;;10.82;100;96133.95;;;;
2019/08/23 00:32:53;;;;;;;14.45;13.15;;;;;;;10.82;100;96133.95;;;;
2019/08/23 00:33:55;;;;;;;14.45;13.15;;;;;;;10.82;100;96133.95;;;;
2019/08/23 00:34:58;;;;;;;14.45;13.15;;;;;;;10.82;100;96133.95;;;;
2019/08/23 00:36:00;;;;;;;14.45;13.15;;;;;;;10.82;100;96133.95;;;;
2019/08/23 00:37:02;;;;;;;14.45;13.15;;;;;;;10.82;100;96133.95;;;;
2019/08/23 00:38:04;;;;;;;14.45;13.15;;;;;;;10.82;100;96133.95;;;;
2019/08/23 00:39:07;;;;;;;14.45;13.15;;;;;;;10.82;100;96133.95;;;;
2019/08/23 00:40:11;;;;;;;14.45;13.15;;;;;;;10.82;100;96133.95;;;;
2019/08/23 00:41:14;;;;;;;14.45;13.15;;;;;;;10.82;100;96133.95;;;;
2019/08/23 00:42:16;;;;;;;14.45;13.15;;;;;;;10.82;100;96133.95;;;;
2019/08/23 00:43:18;;;;;;;14.45;13.15;;;;;;;10.82;100;96133.95;;;;
2019/08/23 00:44:23;;;;;;;14.45;13.15;;;;;;;10.82;100;96133.95;;;;
2019/08/23 00:45:25;;;;;;;14.45;13.15;;;;;;;10.82;100;96133.95;;;;
2019/08/23 00:46:26;;;;;;;14.45;13.15;;;;;;;10.82;100;96133.95;;;;
2019/08/23 00:47:29;;;;;;;14.45;13.15;;;;;;;10.82;100;96133.95;;;;
2019/08/23 00:48:30;;;;;;;14.45;13.15;;;;;;;10.82;100;96133.95;;;;
2019/08/23 00:49:32;;;;;;;14.5;13.15;;;;;;;10.7;100;96126.1;;;;
2019/08/23 00:50:34;;;;;;;14.5;13.15;;;;;;;10.7;100;96126.1;;;;
2019/08/23 00:51:48;;;;;;;14.5;13.15;;;;;;;10.7;100;96126.1;;;;
2019/08/23 00:52:50;;;;;;;14.5;13.15;;;;;;;10.7;100;96126.1;;;;
2019/08/23 00:53:52;;;;;;;14.5;13.15;;;;;;;10.7;100;96126.1;;;;
2019/08/23 00:54:54;;;;;;;14.5;13.15;;;;;;;10.7;100;96126.1;;;;
2019/08/23 00:55:55;;;;;;;14.5;13.15;;;;;;;10.7;100;96126.1;;;;
2019/08/23 00:56:56;;;;;;;14.5;13.15;;;;;;;10.7;100;96126.1;;;;
2019/08/23 00:57:58;;;;;;;14.5;13.15;;;;;;;10.7;100;96126.1;;;;
2019/08/23 00:59:00;;;;;;;14.5;13.15;;;;;;;10.7;100;96126.1;;;;
2019/08/23 01:00:03;;;;;;;15.35;13.8;;;;;;;10.6;100;96122.63;;;;
2019/08/23 01:01:07;;;;;;;15.35;13.8;;;;;;;10.6;100;96122.63;;;;
2019/08/23 01:02:29;;;;;;;15.35;13.8;;;;;;;10.6;100;96122.63;;;;
2019/08/23 01:03:33;;;;;;;15.35;13.8;;;;;;;10.6;100;96122.63;;;;
2019/08/23 01:04:55;;;;;;;15.35;13.8;;;;;;;10.6;100;96122.63;;;;
2019/08/23 01:05:58;;;;;;;15.35;13.8;;;;;;;10.6;100;96122.63;;;;
2019/08/23 01:07:00;;;;;;;15.35;13.8;;;;;;;10.6;100;96122.63;;;;
2019/08/23 01:08:05;;;;;;;15.35;13.8;;;;;;;10.6;100;96122.63;;;;
2019/08/23 01:09:09;;;;;;;15.35;13.8;;;;;;;10.6;100;96122.63;;;;
2019/08/23 01:10:17;;;;;;;14.4;12.9;;;;;;;10.45;100;96125.19;;;;
2019/08/23 01:11:19;;;;;;;14.4;12.9;;;;;;;10.45;100;96125.19;;;;
2019/08/23 01:12:21;;;;;;;14.4;12.9;;;;;;;10.45;100;96125.19;;;;
2019/08/23 01:13:23;;;;;;;14.4;12.9;;;;;;;10.45;100;96125.19;;;;
2019/08/23 01:14:26;;;;;;;14.4;12.9;;;;;;;10.45;100;96125.19;;;;
2019/08/23 01:15:32;;;;;;;14.4;12.9;;;;;;;10.45;100;96125.19;;;;
2019/08/23 01:16:35;;;;;;;14.4;12.9;;;;;;;10.45;100;96125.19;;;;
2019/08/23 01:17:37;;;;;;;14.4;12.9;;;;;;;10.45;100;96125.19;;;;
2019/08/23 01:18:39;;;;;;;14.4;12.9;;;;;;;10.45;100;96125.19;;;;
2019/08/23 01:19:41;;;;;;;14.4;12.9;;;;;;;10.45;100;96125.19;;;;
2019/08/23 01:20:43;;;;;;;15.05;13.55;;;;;;;10.39;100;96135.52;;;;
2019/08/23 01:21:57;;;;;;;15.05;13.55;;;;;;;10.39;100;96135.52;;;;
2019/08/23 01:22:58;;;;;;;15.05;13.55;;;;;;;10.39;100;96135.52;;;;
2019/08/23 01:24:00;;;;;;;15.05;13.55;;;;;;;10.39;100;96135.52;;;;
2019/08/23 01:25:03;;;;;;;15.05;13.55;;;;;;;10.39;100;96135.52;;;;
2019/08/23 01:26:06;;;;;;;15.05;13.55;;;;;;;10.39;100;96135.52;;;;
2019/08/23 01:27:09;;;;;;;15.05;13.55;;;;;;;10.39;100;96135.52;;;;
2019/08/23 01:28:11;;;;;;;15.05;13.55;;;;;;;10.39;100;96135.52;;;;
2019/08/23 01:29:13;;;;;;;15.05;13.55;;;;;;;10.39;100;96135.52;;;;
2019/08/23 01:30:15;;;;;;;15.05;13.55;;;;;;;10.39;100;96135.52;;;;
2019/08/23 01:31:19;;;;;;;13.35;12.05;;;;;;;10.27;100;96138.97;;;;
2019/08/23 01:32:22;;;;;;;13.35;12.05;;;;;;;10.27;100;96138.97;;;;
2019/08/23 01:33:25;;;;;;;13.35;12.05;;;;;;;10.27;100;96138.97;;;;
2019/08/23 01:34:29;;;;;;;13.35;12.05;;;;;;;10.27;100;96138.97;;;;
2019/08/23 01:35:31;;;;;;;13.35;12.05;;;;;;;10.27;100;96138.97;;;;
2019/08/23 01:36:33;;;;;;;13.35;12.05;;;;;;;10.27;100;96138.97;;;;
2019/08/23 01:37:36;;;;;;;13.35;12.05;;;;;;;10.27;100;96138.97;;;;
2019/08/23 01:38:37;;;;;;;13.35;12.05;;;;;;;10.27;100;96138.97;;;;
2019/08/23 01:39:40;;;;;;;13.35;12.05;;;;;;;10.27;100;96138.97;;;;
2019/08/23 01:40:43;;;;;;;13.35;12.05;;;;;;;10.27;100;96138.97;;;;
2019/08/23 01:41:45;;;;;;;13.35;12.05;;;;;;;10.27;100;96138.97;;;;
2019/08/23 01:42:47;;;;;;;13.75;12.45;;;;;;;10.21;100;96140.35;;;;
2019/08/23 01:43:49;;;;;;;13.75;12.45;;;;;;;10.21;100;96140.35;;;;
2019/08/23 01:44:51;;;;;;;13.75;12.45;;;;;;;10.21;100;96140.35;;;;
2019/08/23 01:45:53;;;;;;;13.75;12.45;;;;;;;10.21;100;96140.35;;;;
2019/08/23 01:46:55;;;;;;;13.75;12.45;;;;;;;10.21;100;96140.35;;;;
2019/08/23 01:47:57;;;;;;;13.75;12.45;;;;;;;10.21;100;96140.35;;;;
2019/08/23 01:49:00;;;;;;;13.75;12.45;;;;;;;10.21;100;96140.35;;;;
2019/08/23 01:50:03;;;;;;;13.75;12.45;;;;;;;10.21;100;96140.35;;;;
2019/08/23 01:51:08;;;;;;;13.75;12.45;;;;;;;10.21;100;96140.35;;;;
2019/08/23 01:52:10;;;;;;;13.75;12.45;;;;;;;10.21;100;96140.35;;;;
2019/08/23 01:53:14;;;;;;;13.6;12.4;;;;;;;10.1;100;96141;;;;
2019/08/23 01:54:16;;;;;;;13.6;12.4;;;;;;;10.1;100;96141;;;;
2019/08/23 01:55:17;;;;;;;13.6;12.4;;;;;;;10.1;100;96141;;;;
2019/08/23 01:56:19;;;;;;;13.6;12.4;;;;;;;10.1;100;96141;;;;
2019/08/23 01:57:22;;;;;;;13.6;12.4;;;;;;;10.1;100;96141;;;;
2019/08/23 01:58:24;;;;;;;13.6;12.4;;;;;;;10.1;100;96141;;;;
2019/08/23 01:59:26;;;;;;;13.6;12.4;;;;;;;10.1;100;96141;;;;
2019/08/23 02:00:28;;;;;;;13.6;12.4;;;;;;;10.1;100;96141;;;;
2019/08/23 02:01:30;;;;;;;13.6;12.4;;;;;;;10.1;100;96141;;;;
2019/08/23 02:02:33;;;;;;;13.6;12.4;;;;;;;10.1;100;96141;;;;
2019/08/23 02:03:36;;;;;;;13.2;11.9;;;;;;;10.08;100;96138.58;;;;
2019/08/23 02:04:39;;;;;;;13.2;11.9;;;;;;;10.08;100;96138.58;;;;
2019/08/23 02:05:42;;;;;;;13.2;11.9;;;;;;;10.08;100;96138.58;;;;
2019/08/23 02:06:47;;;;;;;13.2;11.9;;;;;;;10.08;100;96138.58;;;;
2019/08/23 02:07:49;;;;;;;13.2;11.9;;;;;;;10.08;100;96138.58;;;;
2019/08/23 02:08:51;;;;;;;13.2;11.9;;;;;;;10.08;100;96138.58;;;;
2019/08/23 02:09:53;;;;;;;13.2;11.9;;;;;;;10.08;100;96138.58;;;;
2019/08/23 02:10:58;;;;;;;13.2;11.9;;;;;;;10.08;100;96138.58;;;;
2019/08/23 02:12:00;;;;;;;13.2;11.9;;;;;;;10.08;100;96138.58;;;;
2019/08/23 02:13:03;;;;;;;13.2;11.9;;;;;;;10.08;100;96138.58;;;;
2019/08/23 02:14:09;;;;;;;13.75;12.25;;;;;;;9.97;100;96145.87;;;;
2019/08/23 02:15:20;;;;;;;13.75;12.25;;;;;;;9.97;100;96145.87;;;;
2019/08/23 02:16:32;;;;;;;13.75;12.25;;;;;;;9.97;100;96145.87;;;;
2019/08/23 02:17:41;;;;;;;13.75;12.25;;;;;;;9.97;100;96145.87;;;;
2019/08/23 02:18:53;;;;;;;13.75;12.25;;;;;;;9.97;100;96145.87;;;;
2019/08/23 02:19:55;;;;;;;13.75;12.25;;;;;;;9.97;100;96145.87;;;;
2019/08/23 02:20:57;;;;;;;13.75;12.25;;;;;;;9.97;100;96145.87;;;;
2019/08/23 02:21:59;;;;;;;13.75;12.25;;;;;;;9.97;100;96145.87;;;;
2019/08/23 02:23:01;;;;;;;13.75;12.25;;;;;;;9.97;100;96145.87;;;;
2019/08/23 02:24:05;;;;;;;13.75;12.25;;;;;;;9.97;100;96145.87;;;;
2019/08/23 02:25:07;;;;;;;14;12.6;;;;;;;9.93;100;96133.04;;;;
2019/08/23 02:26:11;;;;;;;14;12.6;;;;;;;9.93;100;96133.04;;;;
2019/08/23 02:27:14;;;;;;;14;12.6;;;;;;;9.93;100;96133.04;;;;
2019/08/23 02:28:16;;;;;;;14;12.6;;;;;;;9.93;100;96133.04;;;;
2019/08/23 02:29:18;;;;;;;14;12.6;;;;;;;9.93;100;96133.04;;;;
2019/08/23 02:30:21;;;;;;;14;12.6;;;;;;;9.93;100;96133.04;;;;
2019/08/23 02:31:25;;;;;;;14;12.6;;;;;;;9.93;100;96133.04;;;;
2019/08/23 02:32:27;;;;;;;14;12.6;;;;;;;9.93;100;96133.04;;;;
2019/08/23 02:33:30;;;;;;;14;12.6;;;;;;;9.93;100;96133.04;;;;
2019/08/23 02:34:31;;;;;;;14;12.6;;;;;;;9.93;100;96133.04;;;;
2019/08/23 02:35:33;;;;;;;14.35;12.9;;;;;;;9.8;100;96123.5;;;;
2019/08/23 02:36:35;;;;;;;14.35;12.9;;;;;;;9.8;100;96123.5;;;;
2019/08/23 02:37:37;;;;;;;14.35;12.9;;;;;;;9.8;100;96123.5;;;;
2019/08/23 02:38:39;;;;;;;14.35;12.9;;;;;;;9.8;100;96123.5;;;;
2019/08/23 02:39:40;;;;;;;14.35;12.9;;;;;;;9.8;100;96123.5;;;;
2019/08/23 02:40:42;;;;;;;14.35;12.9;;;;;;;9.8;100;96123.5;;;;
2019/08/23 02:41:43;;;;;;;14.35;12.9;;;;;;;9.8;100;96123.5;;;;
2019/08/23 02:42:45;;;;;;;14.35;12.9;;;;;;;9.8;100;96123.5;;;;
2019/08/23 02:43:47;;;;;;;14.35;12.9;;;;;;;9.8;100;96123.5;;;;
2019/08/23 02:44:49;;;;;;;14.35;12.9;;;;;;;9.8;100;96123.5;;;;
2019/08/23 02:45:51;;;;;;;16.6;13.3;;;;;;;9.77;100;96122.58;;;;
2019/08/23 02:46:53;;;;;;;16.6;13.3;;;;;;;9.77;100;96122.58;;;;
2019/08/23 02:47:56;;;;;;;16.6;13.3;;;;;;;9.77;100;96122.58;;;;
2019/08/23 02:48:57;;;;;;;16.6;13.3;;;;;;;9.77;100;96122.58;;;;
2019/08/23 02:49:59;;;;;;;16.6;13.3;;;;;;;9.77;100;96122.58;;;;
2019/08/23 02:51:00;;;;;;;16.6;13.3;;;;;;;9.77;100;96122.58;;;;
2019/08/23 02:52:03;;;;;;;16.6;13.3;;;;;;;9.77;100;96122.58;;;;
2019/08/23 02:53:04;;;;;;;16.6;13.3;;;;;;;9.77;100;96122.58;;;;
2019/08/23 02:54:11;;;;;;;16.6;13.3;;;;;;;9.77;100;96122.58;;;;
2019/08/23 02:55:12;;;;;;;16.6;13.3;;;;;;;9.77;100;96122.58;;;;
2019/08/23 02:56:14;;;;;;;13.85;12.45;;;;;;;9.67;100;96115.45;;;;
2019/08/23 02:57:16;;;;;;;13.85;12.45;;;;;;;9.67;100;96115.45;;;;
2019/08/23 02:58:18;;;;;;;13.85;12.45;;;;;;;9.67;100;96115.45;;;;
2019/08/23 02:59:19;;;;;;;13.85;12.45;;;;;;;9.67;100;96115.45;;;;
2019/08/23 03:00:21;;;;;;;13.85;12.45;;;;;;;9.67;100;96115.45;;;;
2019/08/23 03:01:36;;;;;;;13.85;12.45;;;;;;;9.67;100;96115.45;;;;
2019/08/23 03:02:48;;;;;;;13.85;12.45;;;;;;;9.67;100;96115.45;;;;
2019/08/23 03:03:49;;;;;;;13.85;12.45;;;;;;;9.67;100;96115.45;;;;
2019/08/23 03:04:51;;;;;;;13.85;12.45;;;;;;;9.67;100;96115.45;;;;
2019/08/23 03:05:54;;;;;;;13.85;12.45;;;;;;;9.67;100;96115.45;;;;
2019/08/23 03:06:56;;;;;;;14.15;12.75;;;;;;;9.69;100;96114.73;;;;
2019/08/23 03:07:58;;;;;;;14.15;12.75;;;;;;;9.69;100;96114.73;;;;
2019/08/23 03:09:00;;;;;;;14.15;12.75;;;;;;;9.69;100;96114.73;;;;
2019/08/23 03:10:05;;;;;;;14.15;12.75;;;;;;;9.69;100;96114.73;;;;
2019/08/23 03:11:08;;;;;;;14.15;12.75;;;;;;;9.69;100;96114.73;;;;
2019/08/23 03:12:10;;;;;;;14.15;12.75;;;;;;;9.69;100;96114.73;;;;
2019/08/23 03:13:12;;;;;;;14.15;12.75;;;;;;;9.69;100;96114.73;;;;
2019/08/23 03:14:13;;;;;;;14.15;12.75;;;;;;;9.69;100;96114.73;;;;
2019/08/23 03:15:15;;;;;;;14.15;12.75;;;;;;;9.69;100;96114.73;;;;
2019/08/23 03:16:18;;;;;;;14.15;12.75;;;;;;;9.69;100;96114.73;;;;
2019/08/23 03:17:20;;;;;;;16.9;15.2;;;;;;;9.87;100;96108.25;;;;
2019/08/23 03:18:21;;;;;;;16.9;15.2;;;;;;;9.87;100;96108.25;;;;
2019/08/23 03:19:23;;;;;;;16.9;15.2;;;;;;;9.87;100;96108.25;;;;
2019/08/23 03:20:24;;;;;;;16.9;15.2;;;;;;;9.87;100;96108.25;;;;
2019/08/23 03:21:26;;;;;;;16.9;15.2;;;;;;;9.87;100;96108.25;;;;
2019/08/23 03:22:28;;;;;;;16.9;15.2;;;;;;;9.87;100;96108.25;;;;
2019/08/23 03:23:29;;;;;;;16.9;15.2;;;;;;;9.87;100;96108.25;;;;
2019/08/23 03:24:31;;;;;;;16.9;15.2;;;;;;;9.87;100;96108.25;;;;
2019/08/23 03:25:32;;;;;;;16.9;15.2;;;;;;;9.87;100;96108.25;;;;
2019/08/23 03:26:34;;;;;;;16.9;15.2;;;;;;;9.87;100;96108.25;;;;
2019/08/23 03:27:36;;;;;;;16.9;15.2;;;;;;;9.87;100;96108.25;;;;
2019/08/23 03:28:37;;;;;;;16.25;14.65;;;;;;;10.2;100;96099.16;;;;
2019/08/23 03:29:39;;;;;;;16.25;14.65;;;;;;;10.2;100;96099.16;;;;
2019/08/23 03:30:40;;;;;;;16.25;14.65;;;;;;;10.2;100;96099.16;;;;
2019/08/23 03:31:42;;;;;;;16.25;14.65;;;;;;;10.2;100;96099.16;;;;
2019/08/23 03:32:44;;;;;;;16.25;14.65;;;;;;;10.2;100;96099.16;;;;
2019/08/23 03:33:46;;;;;;;16.25;14.65;;;;;;;10.2;100;96099.16;;;;
2019/08/23 03:34:47;;;;;;;16.25;14.65;;;;;;;10.2;100;96099.16;;;;
2019/08/23 03:35:49;;;;;;;16.25;14.65;;;;;;;10.2;100;96099.16;;;;
2019/08/23 03:36:51;;;;;;;16.25;14.65;;;;;;;10.2;100;96099.16;;;;
2019/08/23 03:37:52;;;;;;;16.25;14.65;;;;;;;10.2;100;96099.16;;;;
2019/08/23 03:38:54;;;;;;;16.9;15.2;;;;;;;10.47;100;96102.86;;;;
2019/08/23 03:39:55;;;;;;;16.9;15.2;;;;;;;10.47;100;96102.86;;;;
2019/08/23 03:40:57;;;;;;;16.9;15.2;;;;;;;10.47;100;96102.86;;;;
2019/08/23 03:41:58;;;;;;;16.9;15.2;;;;;;;10.47;100;96102.86;;;;
2019/08/23 03:43:00;;;;;;;16.9;15.2;;;;;;;10.47;100;96102.86;;;;
2019/08/23 03:44:01;;;;;;;16.9;15.2;;;;;;;10.47;100;96102.86;;;;
2019/08/23 03:45:04;;;;;;;16.9;15.2;;;;;;;10.47;100;96102.86;;;;
2019/08/23 03:46:10;;;;;;;16.9;15.2;;;;;;;10.47;100;96102.86;;;;
2019/08/23 03:47:12;;;;;;;16.9;15.2;;;;;;;10.47;100;96102.86;;;;
2019/08/23 03:48:13;;;;;;;16.9;15.2;;;;;;;10.47;100;96102.86;;;;
2019/08/23 03:49:15;;;;;;;17.75;15.85;;;;;;;10.76;100;96103.64;;;;
2019/08/23 03:50:16;;;;;;;17.75;15.85;;;;;;;10.76;100;96103.64;;;;
2019/08/23 03:51:23;;;;;;;17.75;15.85;;;;;;;10.76;100;96103.64;;;;
2019/08/23 03:52:25;;;;;;;17.75;15.85;;;;;;;10.76;100;96103.64;;;;
2019/08/23 03:53:26;;;;;;;17.75;15.85;;;;;;;10.76;100;96103.64;;;;
2019/08/23 03:54:28;;;;;;;17.75;15.85;;;;;;;10.76;100;96103.64;;;;
2019/08/23 03:55:29;;;;;;;17.75;15.85;;;;;;;10.76;100;96103.64;;;;
2019/08/23 03:56:30;;;;;;;17.75;15.85;;;;;;;10.76;100;96103.64;;;;
2019/08/23 03:57:32;;;;;;;17.75;15.85;;;;;;;10.76;100;96103.64;;;;
2019/08/23 03:58:33;;;;;;;17.75;15.85;;;;;;;10.76;100;96103.64;;;;
2019/08/23 03:59:35;;;;;;;18.15;16.35;;;;;;;10.91;100;96104.18;;;;
2019/08/23 04:00:36;;;;;;;18.15;16.35;;;;;;;10.91;100;96104.18;;;;
2019/08/23 04:01:42;;;;;;;18.15;16.35;;;;;;;10.91;100;96104.18;;;;
2019/08/23 04:02:44;;;;;;;18.15;16.35;;;;;;;10.91;100;96104.18;;;;
2019/08/23 04:03:45;;;;;;;18.15;16.35;;;;;;;10.91;100;96104.18;;;;
2019/08/23 04:04:47;;;;;;;18.15;16.35;;;;;;;10.91;100;96104.18;;;;
2019/08/23 04:05:48;;;;;;;18.15;16.35;;;;;;;10.91;100;96104.18;;;;
2019/08/23 04:06:50;;;;;;;18.15;16.35;;;;;;;10.91;100;96104.18;;;;
2019/08/23 04:07:51;;;;;;;18.15;16.35;;;;;;;10.91;100;96104.18;;;;
2019/08/23 04:08:54;;;;;;;18.15;16.35;;;;;;;10.91;100;96104.18;;;;
2019/08/23 04:09:56;;;;;;;18.15;16.35;;;;;;;10.91;100;96104.18;;;;
2019/08/23 04:10:58;;;;;;;17.65;15.8;;;;;;;10.98;100;96118.05;;;;
2019/08/23 04:12:00;;;;;;;17.65;15.8;;;;;;;10.98;100;96118.05;;;;
2019/08/23 04:13:03;;;;;;;17.65;15.8;;;;;;;10.98;100;96118.05;;;;
2019/08/23 04:14:05;;;;;;;17.65;15.8;;;;;;;10.98;100;96118.05;;;;
2019/08/23 04:15:07;;;;;;;17.65;15.8;;;;;;;10.98;100;96118.05;;;;
2019/08/23 04:16:11;;;;;;;17.65;15.8;;;;;;;10.98;100;96118.05;;;;
2019/08/23 04:17:13;;;;;;;17.65;15.8;;;;;;;10.98;100;96118.05;;;;
2019/08/23 04:18:15;;;;;;;17.65;15.8;;;;;;;10.98;100;96118.05;;;;
2019/08/23 04:19:17;;;;;;;17.65;15.8;;;;;;;10.98;100;96118.05;;;;
2019/08/23 04:20:18;;;;;;;17.65;15.8;;;;;;;10.98;100;96118.05;;;;
2019/08/23 04:21:20;;;;;;;16.85;15.15;;;;;;;11.01;100;96118.96;;;;
2019/08/23 04:22:21;;;;;;;16.85;15.15;;;;;;;11.01;100;96118.96;;;;
2019/08/23 04:23:23;;;;;;;16.85;15.15;;;;;;;11.01;100;96118.96;;;;
2019/08/23 04:24:24;;;;;;;16.85;15.15;;;;;;;11.01;100;96118.96;;;;
2019/08/23 04:25:26;;;;;;;16.85;15.15;;;;;;;11.01;100;96118.96;;;;
2019/08/23 04:26:28;;;;;;;16.85;15.15;;;;;;;11.01;100;96118.96;;;;
2019/08/23 04:27:29;;;;;;;16.85;15.15;;;;;;;11.01;100;96118.96;;;;
2019/08/23 04:28:30;;;;;;;16.85;15.15;;;;;;;11.01;100;96118.96;;;;
2019/08/23 04:29:32;;;;;;;16.85;15.15;;;;;;;11.01;100;96118.96;;;;
2019/08/23 04:30:33;;;;;;;16.85;15.15;;;;;;;11.01;100;96118.96;;;;
2019/08/23 04:31:36;;;;;;;17.95;15.5;;;;;;;11.16;100;96129.05;;;;
2019/08/23 04:32:38;;;;;;;17.95;15.5;;;;;;;11.16;100;96129.05;;;;
2019/08/23 04:33:40;;;;;;;17.95;15.5;;;;;;;11.16;100;96129.05;;;;
2019/08/23 04:34:41;;;;;;;17.95;15.5;;;;;;;11.16;100;96129.05;;;;
2019/08/23 04:35:42;;;;;;;17.95;15.5;;;;;;;11.16;100;96129.05;;;;
2019/08/23 04:36:43;;;;;;;17.95;15.5;;;;;;;11.16;100;96129.05;;;;
2019/08/23 04:37:45;;;;;;;17.95;15.5;;;;;;;11.16;100;96129.05;;;;
2019/08/23 04:38:47;;;;;;;17.95;15.5;;;;;;;11.16;100;96129.05;;;;
2019/08/23 04:39:48;;;;;;;17.95;15.5;;;;;;;11.16;100;96129.05;;;;
2019/08/23 04:40:50;;;;;;;17.95;15.5;;;;;;;11.16;100;96129.05;;;;
2019/08/23 04:41:52;;;;;;;17.95;15.5;;;;;;;11.16;100;96129.05;;;;
2019/08/23 04:42:54;;;;;;;18.65;16.8;;;;;;;11.33;100;96127.35;;;;
2019/08/23 04:43:55;;;;;;;18.65;16.8;;;;;;;11.33;100;96127.35;;;;
2019/08/23 04:44:57;;;;;;;18.65;16.8;;;;;;;11.33;100;96127.35;;;;
2019/08/23 04:45:58;;;;;;;18.65;16.8;;;;;;;11.33;100;96127.35;;;;
2019/08/23 04:47:17;;;;;;;18.65;16.8;;;;;;;11.33;100;96127.35;;;;
2019/08/23 04:48:18;;;;;;;18.65;16.8;;;;;;;11.33;100;96127.35;;;;
2019/08/23 04:49:20;;;;;;;18.65;16.8;;;;;;;11.33;100;96127.35;;;;
2019/08/23 04:50:21;;;;;;;18.65;16.8;;;;;;;11.33;100;96127.35;;;;
2019/08/23 04:51:22;;;;;;;18.65;16.8;;;;;;;11.33;100;96127.35;;;;
2019/08/23 04:52:24;;;;;;;18.65;16.8;;;;;;;11.33;100;96127.35;;;;
2019/08/23 04:53:25;;;;;;;20.15;17.7;;;;;;;11.66;100;96125.34;;;;
2019/08/23 04:54:26;;;;;;;20.15;17.7;;;;;;;11.66;100;96125.34;;;;
2019/08/23 04:55:28;;;;;;;20.15;17.7;;;;;;;11.66;100;96125.34;;;;
2019/08/23 04:56:29;;;;;;;20.15;17.7;;;;;;;11.66;100;96125.34;;;;
2019/08/23 04:57:31;;;;;;;20.15;17.7;;;;;;;11.66;100;96125.34;;;;
2019/08/23 04:58:32;;;;;;;20.15;17.7;;;;;;;11.66;100;96125.34;;;;
2019/08/23 04:59:33;;;;;;;20.15;17.7;;;;;;;11.66;100;96125.34;;;;
2019/08/23 05:00:35;;;;;;;20.15;17.7;;;;;;;11.66;100;96125.34;;;;
2019/08/23 05:02:07;;;;;;;20.15;17.7;;;;;;;11.66;100;96125.34;;;;
2019/08/23 05:03:08;;;;;;;20.15;17.7;;;;;;;11.66;100;96125.34;;;;
2019/08/23 05:04:10;;;;;;;23.85;20.4;;;;;;;11.92;100;96132.29;;;;
2019/08/23 05:05:11;;;;;;;23.85;20.4;;;;;;;11.92;100;96132.29;;;;
2019/08/23 05:06:13;;;;;;;23.85;20.4;;;;;;;11.92;100;96132.29;;;;
2019/08/23 05:07:14;;;;;;;23.85;20.4;;;;;;;11.92;100;96132.29;;;;
2019/08/23 05:08:16;;;;;;;23.85;20.4;;;;;;;11.92;100;96132.29;;;;
2019/08/23 05:09:17;;;;;;;23.85;20.4;;;;;;;11.92;100;96132.29;;;;
2019/08/23 05:10:19;;;;;;;23.85;20.4;;;;;;;11.92;100;96132.29;;;;
2019/08/23 05:11:21;;;;;;;23.85;20.4;;;;;;;11.92;100;96132.29;;;;
2019/08/23 05:12:22;;;;;;;23.85;20.4;;;;;;;11.92;100;96132.29;;;;
2019/08/23 05:13:23;;;;;;;23.85;20.4;;;;;;;11.92;100;96132.29;;;;
2019/08/23 05:14:25;;;;;;;19.4;17.45;;;;;;;12.19;100;96131.06;;;;
2019/08/23 05:15:27;;;;;;;19.4;17.45;;;;;;;12.19;100;96131.06;;;;
2019/08/23 05:16:29;;;;;;;19.4;17.45;;;;;;;12.19;100;96131.06;;;;
2019/08/23 05:17:31;;;;;;;19.4;17.45;;;;;;;12.19;100;96131.06;;;;
2019/08/23 05:18:32;;;;;;;19.4;17.45;;;;;;;12.19;100;96131.06;;;;
2019/08/23 05:19:33;;;;;;;19.4;17.45;;;;;;;12.19;100;96131.06;;;;
2019/08/23 05:20:34;;;;;;;19.4;17.45;;;;;;;12.19;100;96131.06;;;;
2019/08/23 05:21:36;;;;;;;19.4;17.45;;;;;;;12.19;100;96131.06;;;;
2019/08/23 05:22:37;;;;;;;19.4;17.45;;;;;;;12.19;100;96131.06;;;;
2019/08/23 05:23:38;;;;;;;19.4;17.45;;;;;;;12.19;100;96131.06;;;;
2019/08/23 05:24:39;;;;;;;19.6;17.4;;;;;;;12.38;100;96126.36;;;;
2019/08/23 05:25:41;;;;;;;19.6;17.4;;;;;;;12.38;100;96126.36;;;;
2019/08/23 05:26:42;;;;;;;19.6;17.4;;;;;;;12.38;100;96126.36;;;;
2019/08/23 05:27:43;;;;;;;19.6;17.4;;;;;;;12.38;100;96126.36;;;;
2019/08/23 05:28:44;;;;;;;19.6;17.4;;;;;;;12.38;100;96126.36;;;;
2019/08/23 05:29:45;;;;;;;19.6;17.4;;;;;;;12.38;100;96126.36;;;;
2019/08/23 05:30:47;;;;;;;19.6;17.4;;;;;;;12.38;100;96126.36;;;;
2019/08/23 05:31:49;;;;;;;19.6;17.4;;;;;;;12.38;100;96126.36;;;;
2019/08/23 05:32:50;;;;;;;19.6;17.4;;;;;;;12.38;100;96126.36;;;;
2019/08/23 05:33:51;;;;;;;19.6;17.4;;;;;;;12.38;100;96126.36;;;;
2019/08/23 05:34:52;;;;;;;19.6;17.4;;;;;;;12.38;100;96126.36;;;;
2019/08/23 05:35:53;;;;;;;19.7;17.8;;;;;;;12.76;100;96140.05;;;;
2019/08/23 05:36:55;;;;;;;19.7;17.8;;;;;;;12.76;100;96140.05;;;;
2019/08/23 05:37:56;;;;;;;19.7;17.8;;;;;;;12.76;100;96140.05;;;;
2019/08/23 05:38:57;;;;;;;19.7;17.8;;;;;;;12.76;100;96140.05;;;;
2019/08/23 05:39:58;;;;;;;19.7;17.8;;;;;;;12.76;100;96140.05;;;;
2019/08/23 05:40:59;;;;;;;19.7;17.8;;;;;;;12.76;100;96140.05;;;;
2019/08/23 05:42:00;;;;;;;19.7;17.8;;;;;;;12.76;100;96140.05;;;;
2019/08/23 05:43:02;;;;;;;19.7;17.8;;;;;;;12.76;100;96140.05;;;;
2019/08/23 05:44:06;;;;;;;19.7;17.8;;;;;;;12.76;100;96140.05;;;;
2019/08/23 05:45:10;;;;;;;19.7;17.8;;;;;;;12.76;100;96140.05;;;;
2019/08/23 05:46:13;;;;;;;20.25;18.2;;;;;;;13.29;100;96136.11;;;;
2019/08/23 05:47:14;;;;;;;20.25;18.2;;;;;;;13.29;100;96136.11;;;;
2019/08/23 05:48:15;;;;;;;20.25;18.2;;;;;;;13.29;100;96136.11;;;;
2019/08/23 05:49:23;;;;;;;20.25;18.2;;;;;;;13.29;100;96136.11;;;;
2019/08/23 05:50:24;;;;;;;20.25;18.2;;;;;;;13.29;100;96136.11;;;;
2019/08/23 05:51:27;;;;;;;20.25;18.2;;;;;;;13.29;100;96136.11;;;;
2019/08/23 05:52:28;;;;;;;20.25;18.2;;;;;;;13.29;100;96136.11;;;;
2019/08/23 05:53:29;;;;;;;20.25;18.2;;;;;;;13.29;100;96136.11;;;;
2019/08/23 05:54:30;;;;;;;20.25;18.2;;;;;;;13.29;100;96136.11;;;;
2019/08/23 05:55:31;;;;;;;20.25;18.2;;;;;;;13.29;100;96136.11;;;;
2019/08/23 05:56:34;;;;;;;23.5;21;;;;;;;13.9;100;96124.77;;;;
2019/08/23 05:57:35;;;;;;;23.5;21;;;;;;;13.9;100;96124.77;;;;
2019/08/23 05:58:36;;;;;;;23.5;21;;;;;;;13.9;100;96124.77;;;;
2019/08/23 05:59:37;;;;;;;23.5;21;;;;;;;13.9;100;96124.77;;;;
2019/08/23 06:00:39;;;;;;;23.5;21;;;;;;;13.9;100;96124.77;;;;
2019/08/23 06:01:59;;;;;;;23.5;21;;;;;;;13.9;100;96124.77;;;;
2019/08/23 06:03:00;;;;;;;23.5;21;;;;;;;13.9;100;96124.77;;;;
2019/08/23 06:04:03;;;;;;;23.5;21;;;;;;;13.9;100;96124.77;;;;
2019/08/23 06:05:05;;;;;;;23.5;21;;;;;;;13.9;100;96124.77;;;;
2019/08/23 06:06:07;;;;;;;23.5;21;;;;;;;13.9;100;96124.77;;;;
2019/08/23 06:07:08;;;;;;;42.39999;35.35001;;;;;;;14.64;100;96129.02;;;;
2019/08/23 06:08:09;;;;;;;42.39999;35.35001;;;;;;;14.64;100;96129.02;;;;
2019/08/23 06:09:11;;;;;;;42.39999;35.35001;;;;;;;14.64;100;96129.02;;;;
2019/08/23 06:10:14;;;;;;;42.39999;35.35001;;;;;;;14.64;100;96129.02;;;;
2019/08/23 06:11:16;;;;;;;42.39999;35.35001;;;;;;;14.64;100;96129.02;;;;
2019/08/23 06:12:17;;;;;;;42.39999;35.35001;;;;;;;14.64;100;96129.02;;;;
2019/08/23 06:13:18;;;;;;;42.39999;35.35001;;;;;;;14.64;100;96129.02;;;;
2019/08/23 06:14:20;;;;;;;42.39999;35.35001;;;;;;;14.64;100;96129.02;;;;
2019/08/23 06:15:21;;;;;;;42.39999;35.35001;;;;;;;14.64;100;96129.02;;;;
2019/08/23 06:16:23;;;;;;;42.39999;35.35001;;;;;;;14.64;100;96129.02;;;;
2019/08/23 06:17:24;;;;;;;42.39999;35.35001;;;;;;;14.64;100;96129.02;;;;